aviador You're here:

KMYJ Decoded Metar

in
Report Time2017-04-24 13:15:00
UTC Time2017-04-24 13:12:10
Flight Rules vfr VFR
WindCalm
Visibility9999 m
Phenomena:N/A
Clouds:N/A
Expected CloudBase > 2,000 ft AGL from Temp-Dew spread
CeilingNone
Temp08°C
Dew Point03°C (71% RH)
AAT6.5°C
QNH1015 hPa
Raw Report
KMYJ 241315Z AUTO 00000KT 10SM CLR 08/03 A2997 RMK AO2=

Extra information for KMYJ:More info

Social comments